createdAt,value
2023-02-16T00:01:54.555Z,7.20
2023-02-16T00:04:24.954Z,7.20
2023-02-16T00:06:54.134Z,7.20
2023-02-16T00:09:23.336Z,7.20
2023-02-16T00:12:11.434Z,7.20
2023-02-16T00:14:41.585Z,7.20
2023-02-16T00:17:12.959Z,7.20
2023-02-16T00:19:43.198Z,7.20
2023-02-16T00:22:12.194Z,7.20
2023-02-16T00:24:40.510Z,7.20
2023-02-16T00:27:18.434Z,7.20
2023-02-16T00:29:48.159Z,7.20
2023-02-16T00:32:16.620Z,7.20
2023-02-16T00:34:45.960Z,7.20
2023-02-16T00:37:15.064Z,7.20
2023-02-16T00:39:44.820Z,7.20
2023-02-16T00:42:18.116Z,7.20
2023-02-16T00:44:49.814Z,7.10
2023-02-16T00:47:21.530Z,7.20
2023-02-16T00:49:51.806Z,7.20
2023-02-16T00:52:31.097Z,7.20
2023-02-16T00:55:00.439Z,7.20
2023-02-16T00:57:31.858Z,7.10
2023-02-16T01:00:06.360Z,7.20
2023-02-16T01:02:34.882Z,7.10
2023-02-16T01:05:03.214Z,7.20
2023-02-16T01:07:50.277Z,7.20
2023-02-16T01:10:33.157Z,7.10
2023-02-16T01:13:02.343Z,7.10
2023-02-16T01:15:32.110Z,7.10
2023-02-16T01:18:02.184Z,7.10
2023-02-16T01:20:30.580Z,7.10
2023-02-16T01:22:58.875Z,7.10
2023-02-16T01:25:27.245Z,7.10
2023-02-16T01:27:56.719Z,7.10
2023-02-16T01:30:27.106Z,7.20
2023-02-16T01:32:56.859Z,7.10
2023-02-16T01:35:31.815Z,7.10
2023-02-16T01:38:00.403Z,7.10
2023-02-16T01:40:42.075Z,7.10
2023-02-16T01:43:19.905Z,7.10
2023-02-16T01:45:56.744Z,7.10
2023-02-16T01:48:30.682Z,7.10
2023-02-16T01:51:06.436Z,7.10
2023-02-16T01:53:38.973Z,7.10
2023-02-16T01:56:16.543Z,7.10
2023-02-16T01:58:49.149Z,7.10
2023-02-16T02:01:44.179Z,7.10
2023-02-16T02:04:48.285Z,7.10
2023-02-16T02:07:26.597Z,7.10
2023-02-16T02:10:03.870Z,7.10
2023-02-16T02:12:38.986Z,7.10
2023-02-16T02:15:10.077Z,7.10
2023-02-16T02:17:38.462Z,7.10
2023-02-16T02:20:17.449Z,7.10
2023-02-16T02:23:31.935Z,7.10
2023-02-16T02:26:37.433Z,7.10
2023-02-16T02:29:25.490Z,7.10
2023-02-16T02:32:01.383Z,7.00
2023-02-16T02:34:50.050Z,7.10
2023-02-16T02:37:27.683Z,7.00
2023-02-16T02:40:04.060Z,7.00
2023-02-16T02:42:38.946Z,7.10
2023-02-16T02:45:15.126Z,7.00
2023-02-16T02:47:47.899Z,7.10
2023-02-16T02:50:38.578Z,7.00
2023-02-16T02:53:15.077Z,7.00
2023-02-16T02:56:06.439Z,7.10
2023-02-16T02:59:07.042Z,7.00
2023-02-16T03:01:39.054Z,7.00
2023-02-16T03:04:10.149Z,7.00
2023-02-16T03:06:42.812Z,7.00
2023-02-16T03:09:14.232Z,7.00
2023-02-16T03:12:00.979Z,7.00
2023-02-16T03:14:34.702Z,7.00
2023-02-16T03:17:25.804Z,7.00
2023-02-16T03:20:12.108Z,7.00
2023-02-16T03:22:59.187Z,7.00
2023-02-16T03:25:49.918Z,7.00
2023-02-16T03:28:38.595Z,7.00
2023-02-16T03:31:13.350Z,7.00
2023-02-16T03:33:43.677Z,6.90
2023-02-16T03:36:12.172Z,6.90
2023-02-16T03:38:40.870Z,7.00
2023-02-16T03:41:09.233Z,6.90
2023-02-16T03:43:37.918Z,6.90
2023-02-16T03:46:06.537Z,6.90
2023-02-16T03:48:34.984Z,6.90
2023-02-16T03:51:05.135Z,7.00
2023-02-16T03:53:33.629Z,7.00
2023-02-16T03:56:01.911Z,6.90
2023-02-16T03:58:30.268Z,6.90
2023-02-16T04:00:59.283Z,6.90
2023-02-16T04:03:27.612Z,6.90
2023-02-16T04:05:57.011Z,6.90
2023-02-16T04:08:26.816Z,6.90
2023-02-16T04:10:56.838Z,6.90
2023-02-16T04:13:24.460Z,6.90
2023-02-16T04:15:52.783Z,6.90
2023-02-16T04:18:21.147Z,6.90
2023-02-16T04:20:49.498Z,6.90
2023-02-16T04:23:17.749Z,6.90
2023-02-16T04:25:47.447Z,6.90
2023-02-16T04:28:15.830Z,7.00
2023-02-16T04:30:44.163Z,6.90
2023-02-16T04:33:12.578Z,6.90
2023-02-16T04:35:40.874Z,6.90
2023-02-16T04:38:09.258Z,6.90
2023-02-16T04:40:37.529Z,6.90
2023-02-16T04:43:07.232Z,6.90
2023-02-16T04:45:35.520Z,6.90
2023-02-16T04:48:03.898Z,6.90
2023-02-16T04:50:32.367Z,6.90
2023-02-16T04:53:00.719Z,6.90
2023-02-16T04:55:29.736Z,6.90
2023-02-16T04:57:58.350Z,6.90
2023-02-16T05:00:28.132Z,6.90
2023-02-16T05:02:56.504Z,6.90
2023-02-16T05:05:24.798Z,6.90
2023-02-16T05:07:53.193Z,6.80
2023-02-16T05:10:21.621Z,6.90
2023-02-16T05:13:07.158Z,6.90
2023-02-16T05:15:37.170Z,6.80
2023-02-16T05:18:05.774Z,6.90
2023-02-16T05:20:51.472Z,6.90
2023-02-16T05:23:19.922Z,6.90
2023-02-16T05:25:48.289Z,6.80
2023-02-16T05:28:16.697Z,6.80
2023-02-16T05:30:46.433Z,6.80
2023-02-16T05:33:15.379Z,6.80
2023-02-16T05:35:43.837Z,6.80
2023-02-16T05:38:12.142Z,6.80
2023-02-16T05:40:40.467Z,6.80
2023-02-16T05:43:08.940Z,6.80
2023-02-16T05:45:39.400Z,6.80
2023-02-16T05:48:09.103Z,6.80
2023-02-16T05:50:37.419Z,6.80
2023-02-16T05:53:06.433Z,6.80
2023-02-16T05:55:34.745Z,6.80
2023-02-16T05:58:03.166Z,6.80
2023-02-16T06:00:33.652Z,6.80
2023-02-16T06:03:02.095Z,6.80
2023-02-16T06:05:32.185Z,6.80
2023-02-16T06:08:00.665Z,6.80
2023-02-16T06:10:29.019Z,6.80
2023-02-16T06:12:57.731Z,6.80
2023-02-16T06:15:26.846Z,6.70
2023-02-16T06:17:55.256Z,6.80
2023-02-16T06:20:23.676Z,6.70
2023-02-16T06:22:53.422Z,6.70
2023-02-16T06:25:21.829Z,6.80
2023-02-16T06:27:50.579Z,6.80
2023-02-16T06:30:19.391Z,6.70
2023-02-16T06:32:48.119Z,6.70
2023-02-16T06:35:17.091Z,6.70
2023-02-16T06:37:46.418Z,6.70
2023-02-16T06:40:18.399Z,6.70
2023-02-16T06:42:46.849Z,6.70
2023-02-16T06:45:15.675Z,6.70
2023-02-16T06:47:44.626Z,6.70
2023-02-16T06:50:14.768Z,6.70
2023-02-16T06:52:43.049Z,6.70
2023-02-16T06:55:12.925Z,6.70
2023-02-16T06:57:42.999Z,6.70
2023-02-16T07:00:12.806Z,6.70
2023-02-16T07:02:43.524Z,6.70
2023-02-16T07:05:11.946Z,6.70
2023-02-16T07:07:40.827Z,6.70
2023-02-16T07:10:10.368Z,6.70
2023-02-16T07:12:38.701Z,6.70
2023-02-16T07:15:09.183Z,6.70
2023-02-16T07:17:38.320Z,6.70
2023-02-16T07:20:08.480Z,6.70
2023-02-16T07:22:37.539Z,6.70
2023-02-16T07:25:06.079Z,6.70
2023-02-16T07:27:34.594Z,6.70
2023-02-16T07:30:03.031Z,6.60
2023-02-16T07:32:33.333Z,6.60
2023-02-16T07:35:02.127Z,6.60
2023-02-16T07:37:30.655Z,6.70
2023-02-16T07:39:59.227Z,6.70
2023-02-16T07:42:31.143Z,6.60
2023-02-16T07:44:59.903Z,6.60
2023-02-16T07:47:28.368Z,6.60
2023-02-16T07:49:58.915Z,6.60
2023-02-16T07:52:31.231Z,6.60
2023-02-16T07:55:00.139Z,6.60
2023-02-16T07:57:29.776Z,6.60
2023-02-16T07:59:58.657Z,6.60
2023-02-16T08:02:28.143Z,6.60
2023-02-16T08:04:58.507Z,6.60
2023-02-16T08:07:27.316Z,6.60
2023-02-16T08:09:56.740Z,6.60
2023-02-16T08:12:26.275Z,6.60
2023-02-16T08:14:55.796Z,6.60
2023-02-16T08:17:24.294Z,6.60
2023-02-16T08:19:52.936Z,6.60
2023-02-16T08:22:24.064Z,6.60
2023-02-16T08:24:54.226Z,6.60
2023-02-16T08:27:22.981Z,6.60
2023-02-16T08:29:51.827Z,6.60
2023-02-16T08:32:21.423Z,6.60
2023-02-16T08:34:49.897Z,6.60
2023-02-16T08:37:18.740Z,6.60
2023-02-16T08:39:49.489Z,6.60
2023-02-16T08:42:18.510Z,6.60
2023-02-16T08:44:47.142Z,6.60
2023-02-16T08:47:16.913Z,6.60
2023-02-16T08:49:45.857Z,6.60
2023-02-16T08:52:14.795Z,6.60
2023-02-16T08:54:43.910Z,6.60
2023-02-16T08:57:14.060Z,6.60
2023-02-16T08:59:43.254Z,6.60
2023-02-16T09:02:12.611Z,6.60
2023-02-16T09:04:41.336Z,6.60
2023-02-16T09:07:09.751Z,6.60
2023-02-16T09:09:40.134Z,6.60
2023-02-16T09:12:10.227Z,6.60
2023-02-16T09:14:40.377Z,6.60
2023-02-16T09:17:09.065Z,6.70
2023-02-16T09:19:38.466Z,6.70
2023-02-16T09:22:06.969Z,6.70
2023-02-16T09:24:35.409Z,6.70
2023-02-16T09:27:04.211Z,6.70
2023-02-16T09:29:32.847Z,6.70
2023-02-16T09:32:02.992Z,6.70
2023-02-16T09:34:31.347Z,6.70
2023-02-16T09:36:59.838Z,6.70
2023-02-16T09:39:28.836Z,6.60
2023-02-16T09:42:05.053Z,6.70
2023-02-16T09:44:48.806Z,6.60
2023-02-16T09:47:25.583Z,6.60
2023-02-16T09:49:57.012Z,6.70
2023-02-16T09:52:31.758Z,6.70
2023-02-16T09:55:01.707Z,6.60
2023-02-16T09:57:44.188Z,6.60
2023-02-16T10:00:24.847Z,6.60
2023-02-16T10:03:01.722Z,6.60
2023-02-16T10:05:34.142Z,6.60
2023-02-16T10:08:07.805Z,6.60
2023-02-16T10:10:46.333Z,6.60
2023-02-16T10:13:23.575Z,6.60
2023-02-16T10:15:54.520Z,6.60
2023-02-16T10:18:34.031Z,6.60
2023-02-16T10:21:07.523Z,6.60
2023-02-16T10:23:47.834Z,6.60
2023-02-16T10:26:25.816Z,6.60
2023-02-16T10:28:56.490Z,6.60
2023-02-16T10:31:31.484Z,6.60
2023-02-16T10:34:18.631Z,6.60
2023-02-16T10:37:09.404Z,6.60
2023-02-16T10:39:44.542Z,6.60
2023-02-16T10:42:22.696Z,6.60
2023-02-16T10:45:03.437Z,6.60
2023-02-16T10:47:36.785Z,6.60
2023-02-16T10:50:17.026Z,6.60
2023-02-16T10:52:45.928Z,6.60
2023-02-16T10:55:14.275Z,6.60
2023-02-16T10:57:42.976Z,6.60
2023-02-16T11:00:17.603Z,6.60
2023-02-16T11:02:49.423Z,6.60
2023-02-16T11:05:36.489Z,6.60
2023-02-16T11:08:06.119Z,6.60
2023-02-16T11:10:46.199Z,6.60
2023-02-16T11:13:27.305Z,6.60
2023-02-16T11:15:57.705Z,6.60
2023-02-16T11:18:37.892Z,6.60
2023-02-16T11:21:09.278Z,6.50
2023-02-16T11:23:43.866Z,6.60
2023-02-16T11:26:25.077Z,6.60
2023-02-16T11:28:53.643Z,6.60
2023-02-16T11:31:27.984Z,6.60
2023-02-16T11:34:01.149Z,6.50
2023-02-16T11:36:34.941Z,6.60
2023-02-16T11:39:06.980Z,6.60
2023-02-16T11:41:36.672Z,6.50
2023-02-16T11:44:05.691Z,6.60
2023-02-16T11:46:41.967Z,6.60
2023-02-16T11:49:23.719Z,6.60
2023-02-16T11:51:53.383Z,6.60
2023-02-16T11:54:40.308Z,6.50
2023-02-16T11:57:11.043Z,6.60
2023-02-16T11:59:40.902Z,6.50
2023-02-16T12:02:39.091Z,6.50
2023-02-16T12:05:27.153Z,6.60
2023-02-16T12:08:22.209Z,6.60
2023-02-16T12:11:06.328Z,6.50
2023-02-16T12:13:42.951Z,6.50
2023-02-16T12:16:25.208Z,6.60
2023-02-16T12:19:04.618Z,6.50
2023-02-16T12:21:40.354Z,6.60
2023-02-16T12:24:21.884Z,6.60
2023-02-16T12:26:53.098Z,6.70
2023-02-16T12:29:35.838Z,6.70
2023-02-16T12:32:30.332Z,6.70
2023-02-16T12:35:11.036Z,6.70
2023-02-16T12:37:46.588Z,6.70
2023-02-16T12:40:28.582Z,6.70
2023-02-16T12:43:23.434Z,6.70
2023-02-16T12:45:54.412Z,6.60
2023-02-16T12:48:40.327Z,6.70
2023-02-16T12:51:15.238Z,6.60
2023-02-16T12:53:49.856Z,6.60
2023-02-16T12:56:25.217Z,6.60
2023-02-16T12:59:01.601Z,6.60
2023-02-16T13:01:34.609Z,6.60
2023-02-16T13:04:12.826Z,6.60
2023-02-16T13:06:48.632Z,6.60
2023-02-16T13:09:27.393Z,6.60
2023-02-16T13:12:02.383Z,6.60
2023-02-16T13:14:34.720Z,6.60
2023-02-16T13:17:06.638Z,6.60
2023-02-16T13:19:34.856Z,6.60
2023-02-16T13:22:40.485Z,6.60
2023-02-16T13:25:32.454Z,6.60
2023-02-16T13:28:31.377Z,6.60
2023-02-16T13:31:15.505Z,6.60
2023-02-16T13:34:04.244Z,6.70
2023-02-16T13:36:43.787Z,6.60
2023-02-16T13:39:39.312Z,6.60
2023-02-16T13:42:31.368Z,6.60
2023-02-16T13:45:02.769Z,6.60
2023-02-16T13:47:34.685Z,6.60
2023-02-16T13:50:04.429Z,6.60
2023-02-16T13:52:35.595Z,6.70
2023-02-16T13:55:08.258Z,6.70
2023-02-16T13:58:05.791Z,6.80
2023-02-16T14:00:38.494Z,6.90
2023-02-16T14:03:13.476Z,7.00
2023-02-16T14:05:44.387Z,7.00
2023-02-16T14:08:25.545Z,7.10
2023-02-16T14:11:08.638Z,7.10
2023-02-16T14:13:47.524Z,7.00
2023-02-16T14:16:35.229Z,7.00
2023-02-16T14:19:17.940Z,7.00
2023-02-16T14:21:48.282Z,6.90
2023-02-16T14:24:30.139Z,6.90
2023-02-16T14:27:00.512Z,6.90
2023-02-16T14:29:32.456Z,6.90
2023-02-16T14:32:06.596Z,6.90
2023-02-16T14:34:40.665Z,6.90
2023-02-16T14:37:45.512Z,6.80
2023-02-16T14:40:25.090Z,6.80
2023-02-16T14:42:57.599Z,6.90
2023-02-16T14:45:52.804Z,6.90
2023-02-16T14:48:50.649Z,6.80
2023-02-16T14:51:39.944Z,6.80
2023-02-16T14:54:42.759Z,6.80
2023-02-16T14:57:15.660Z,6.80
2023-02-16T14:59:51.207Z,6.80
2023-02-16T15:02:32.140Z,6.80
2023-02-16T15:05:17.757Z,6.80
2023-02-16T15:07:50.363Z,6.80
2023-02-16T15:10:26.801Z,6.80
2023-02-16T15:12:56.126Z,6.80
2023-02-16T15:15:30.556Z,6.80
2023-02-16T15:17:58.981Z,6.80
2023-02-16T15:20:34.220Z,6.80
2023-02-16T15:23:06.222Z,6.80
2023-02-16T15:25:35.988Z,6.80
2023-02-16T15:28:16.821Z,6.80
2023-02-16T15:30:49.612Z,6.80
2023-02-16T15:33:34.279Z,6.80
2023-02-16T15:36:07.325Z,6.90
2023-02-16T15:38:38.112Z,6.90
2023-02-16T15:41:08.334Z,6.80
2023-02-16T15:43:40.062Z,6.90
2023-02-16T15:46:16.139Z,6.80
2023-02-16T15:48:44.466Z,6.80
2023-02-16T15:51:19.316Z,6.90
2023-02-16T15:53:51.479Z,6.90
2023-02-16T15:56:34.652Z,6.80
2023-02-16T15:59:06.706Z,6.80
2023-02-16T16:01:36.406Z,6.80
2023-02-16T16:04:08.889Z,6.90
2023-02-16T16:06:40.977Z,6.80
2023-02-16T16:09:21.605Z,6.90
2023-02-16T16:11:51.956Z,6.80
2023-02-16T16:14:20.660Z,6.80
2023-02-16T16:16:49.456Z,6.80
2023-02-16T16:19:20.963Z,6.90
2023-02-16T16:21:55.630Z,6.80
2023-02-16T16:24:34.173Z,6.80
2023-02-16T16:27:07.237Z,6.80
2023-02-16T16:29:41.264Z,6.90
2023-02-16T16:32:20.053Z,6.80
2023-02-16T16:34:49.233Z,6.90
2023-02-16T16:37:30.251Z,6.80
2023-02-16T16:40:07.837Z,6.90
2023-02-16T16:42:39.867Z,6.90
2023-02-16T16:45:34.395Z,6.90
2023-02-16T16:48:08.579Z,6.90
2023-02-16T16:50:39.789Z,6.90
2023-02-16T16:53:41.563Z,6.90
2023-02-16T16:56:14.495Z,6.90
2023-02-16T16:58:43.094Z,6.90
2023-02-16T17:01:13.782Z,6.90
2023-02-16T17:03:42.175Z,6.90
2023-02-16T17:06:10.746Z,6.90
2023-02-16T17:08:39.044Z,6.90
2023-02-16T17:11:09.468Z,6.90
2023-02-16T17:13:39.186Z,6.90
2023-02-16T17:16:12.359Z,6.90
2023-02-16T17:18:41.106Z,6.90
2023-02-16T17:21:12.298Z,6.90
2023-02-16T17:23:50.359Z,6.90
2023-02-16T17:26:20.977Z,6.90
2023-02-16T17:28:51.276Z,6.90
2023-02-16T17:31:19.755Z,6.90
2023-02-16T17:33:48.136Z,6.90
2023-02-16T17:36:17.466Z,6.90
2023-02-16T17:38:46.249Z,6.90
2023-02-16T17:41:21.473Z,7.00
2023-02-16T17:43:51.610Z,7.00
2023-02-16T17:46:21.881Z,7.00
2023-02-16T17:48:52.072Z,7.00
2023-02-16T17:51:21.978Z,7.00
2023-02-16T17:53:50.441Z,7.00
2023-02-16T17:56:23.135Z,7.00
2023-02-16T17:58:52.963Z,7.00
2023-02-16T18:01:22.715Z,7.00
2023-02-16T18:03:52.425Z,7.00
2023-02-16T18:06:26.326Z,7.00
2023-02-16T18:08:55.751Z,7.00
2023-02-16T18:11:24.024Z,7.00
2023-02-16T18:13:53.645Z,7.00
2023-02-16T18:16:27.346Z,7.00
2023-02-16T18:18:57.415Z,7.00
2023-02-16T18:21:25.734Z,7.00
2023-02-16T18:23:54.314Z,7.00
2023-02-16T18:26:23.750Z,7.00
2023-02-16T18:28:53.456Z,7.10
2023-02-16T18:31:21.819Z,7.00
2023-02-16T18:33:50.362Z,7.00
2023-02-16T18:36:18.671Z,7.10
2023-02-16T18:38:46.988Z,7.10
2023-02-16T18:41:15.339Z,7.00
2023-02-16T18:43:43.586Z,7.10
2023-02-16T18:46:13.294Z,7.10
2023-02-16T18:48:41.564Z,7.10
2023-02-16T18:51:11.817Z,7.10
2023-02-16T18:53:40.528Z,7.10
2023-02-16T18:56:10.034Z,7.10
2023-02-16T18:58:38.356Z,7.10
2023-02-16T19:01:15.225Z,7.10
2023-02-16T19:03:43.795Z,7.10
2023-02-16T19:06:12.056Z,7.10
2023-02-16T19:08:40.748Z,7.10
2023-02-16T19:11:09.279Z,7.10
2023-02-16T19:13:37.558Z,7.10
2023-02-16T19:16:06.990Z,7.10
2023-02-16T19:18:36.962Z,7.10
2023-02-16T19:21:07.124Z,7.10
2023-02-16T19:23:35.427Z,7.10
2023-02-16T19:26:07.308Z,7.10
2023-02-16T19:28:36.186Z,7.10
2023-02-16T19:31:06.015Z,7.10
2023-02-16T19:33:36.632Z,7.20
2023-02-16T19:36:07.207Z,7.10
2023-02-16T19:38:35.660Z,7.10
2023-02-16T19:41:09.795Z,7.20
2023-02-16T19:43:38.079Z,7.10
2023-02-16T19:46:07.366Z,7.20
2023-02-16T19:48:38.987Z,7.20
2023-02-16T19:51:08.664Z,7.20
2023-02-16T19:53:38.893Z,7.20
2023-02-16T19:56:10.033Z,7.20
2023-02-16T19:58:38.377Z,7.20
2023-02-16T20:01:10.715Z,7.20
2023-02-16T20:03:40.811Z,7.20
2023-02-16T20:06:17.843Z,7.20
2023-02-16T20:08:47.378Z,7.20
2023-02-16T20:11:16.540Z,7.20
2023-02-16T20:13:45.049Z,7.20
2023-02-16T20:16:14.031Z,7.20
2023-02-16T20:18:44.654Z,7.20
2023-02-16T20:21:14.549Z,7.20
2023-02-16T20:23:44.004Z,7.20
2023-02-16T20:26:14.770Z,7.20
2023-02-16T20:28:43.254Z,7.20
2023-02-16T20:31:13.509Z,7.20
2023-02-16T20:33:43.805Z,7.20
2023-02-16T20:36:12.920Z,7.20
2023-02-16T20:38:41.224Z,7.30
2023-02-16T20:41:09.629Z,7.20
2023-02-16T20:43:38.347Z,7.20
2023-02-16T20:46:07.981Z,7.20
2023-02-16T20:48:36.869Z,7.20
2023-02-16T20:51:08.685Z,7.30
2023-02-16T20:53:37.328Z,7.30
2023-02-16T20:56:08.677Z,7.30
2023-02-16T20:58:38.539Z,7.30
2023-02-16T21:01:15.493Z,7.30
2023-02-16T21:03:45.372Z,7.30
2023-02-16T21:06:15.521Z,7.30
2023-02-16T21:08:44.122Z,7.30
2023-02-16T21:11:13.107Z,7.30
2023-02-16T21:13:42.748Z,7.30
2023-02-16T21:16:12.188Z,7.30
2023-02-16T21:18:40.773Z,7.30
2023-02-16T21:21:10.123Z,7.30
2023-02-16T21:23:39.833Z,7.30
2023-02-16T21:26:08.800Z,7.30
2023-02-16T21:28:51.124Z,7.30
2023-02-16T21:31:22.315Z,7.30
2023-02-16T21:33:50.905Z,7.30
2023-02-16T21:36:22.151Z,7.30
2023-02-16T21:38:51.978Z,7.30
2023-02-16T21:41:24.553Z,7.30
2023-02-16T21:43:59.372Z,7.30
2023-02-16T21:46:28.744Z,7.30
2023-02-16T21:48:57.461Z,7.40
2023-02-16T21:51:30.922Z,7.40
2023-02-16T21:54:01.320Z,7.30
2023-02-16T21:56:33.246Z,7.40
2023-02-16T21:59:01.688Z,7.40
2023-02-16T22:01:33.441Z,7.40
2023-02-16T22:04:03.441Z,7.40
2023-02-16T22:06:33.675Z,7.40
2023-02-16T22:09:06.645Z,7.40
2023-02-16T22:11:34.955Z,7.40
2023-02-16T22:14:04.221Z,7.40
2023-02-16T22:16:34.114Z,7.40
2023-02-16T22:19:07.185Z,7.40
2023-02-16T22:21:37.581Z,7.40
2023-02-16T22:24:08.551Z,7.40
2023-02-16T22:26:37.255Z,7.40
2023-02-16T22:29:07.942Z,7.40
2023-02-16T22:31:37.228Z,7.40
2023-02-16T22:34:07.929Z,7.40
2023-02-16T22:36:37.652Z,7.40
2023-02-16T22:39:08.209Z,7.40
2023-02-16T22:41:37.093Z,7.40
2023-02-16T22:44:05.865Z,7.40
2023-02-16T22:46:34.463Z,7.40
2023-02-16T22:49:02.879Z,7.40
2023-02-16T22:51:31.766Z,7.50
2023-02-16T22:54:01.931Z,7.50
2023-02-16T22:56:32.516Z,7.50
2023-02-16T22:59:01.539Z,7.50
2023-02-16T23:01:31.361Z,7.50
2023-02-16T23:04:01.400Z,7.40
2023-02-16T23:06:31.958Z,7.50
2023-02-16T23:09:03.108Z,7.50
2023-02-16T23:11:33.043Z,7.50
2023-02-16T23:14:01.379Z,7.50
2023-02-16T23:16:30.095Z,7.50
2023-02-16T23:19:00.343Z,7.50
2023-02-16T23:21:30.267Z,7.50
2023-02-16T23:23:59.736Z,7.50
2023-02-16T23:26:30.166Z,7.50
2023-02-16T23:29:02.176Z,7.50
2023-02-16T23:31:32.968Z,7.50
2023-02-16T23:34:02.595Z,7.50
2023-02-16T23:36:31.201Z,7.50
2023-02-16T23:39:01.521Z,7.50
2023-02-16T23:41:30.108Z,7.50
2023-02-16T23:44:01.171Z,7.50
2023-02-16T23:46:29.971Z,7.50
2023-02-16T23:48:58.364Z,7.50
2023-02-16T23:51:27.391Z,7.50
2023-02-16T23:53:56.053Z,7.50
2023-02-16T23:56:25.598Z,7.50
2023-02-16T23:58:57.358Z,7.50
